createdAt,value
2019-06-20T00:00:02.675Z,28.15
2019-06-20T00:01:02.714Z,28.15
2019-06-20T00:02:02.647Z,28.25
2019-06-20T00:03:02.634Z,28.07
2019-06-20T00:04:02.623Z,28.10
2019-06-20T00:05:02.615Z,28.10
2019-06-20T00:06:02.604Z,28.11
2019-06-20T00:07:02.602Z,28.15
2019-06-20T00:08:02.587Z,28.14
2019-06-20T00:09:02.692Z,28.10
2019-06-20T00:10:02.560Z,28.08
2019-06-20T00:11:02.712Z,28.10
2019-06-20T00:12:02.539Z,28.17
2019-06-20T00:13:02.528Z,28.07
2019-06-20T00:14:02.845Z,28.08
2019-06-20T00:15:02.515Z,28.11
2019-06-20T00:16:02.497Z,28.08
2019-06-20T00:17:02.496Z,28.11
2019-06-20T00:18:02.477Z,28.08
2019-06-20T00:19:02.464Z,28.08
2019-06-20T00:20:02.464Z,28.08
2019-06-20T00:21:02.444Z,28.08
2019-06-20T00:22:02.464Z,28.08
2019-06-20T00:23:02.503Z,28.08
2019-06-20T00:24:02.709Z,28.11
2019-06-20T00:25:03.041Z,28.02
2019-06-20T00:26:02.417Z,28.08
2019-06-20T00:27:02.381Z,28.01
2019-06-20T00:28:02.368Z,28.04
2019-06-20T00:29:02.354Z,28.05
2019-06-20T00:30:02.350Z,28.05
2019-06-20T00:31:02.334Z,27.98
2019-06-20T00:32:02.325Z,28.02
2019-06-20T00:33:02.331Z,28.04
2019-06-20T00:34:02.306Z,27.96
2019-06-20T00:35:02.292Z,28.01
2019-06-20T00:36:02.285Z,28.02
2019-06-20T00:37:02.272Z,27.93
2019-06-20T00:38:02.262Z,28.10
2019-06-20T00:39:02.251Z,28.04
2019-06-20T00:40:02.250Z,27.95
2019-06-20T00:41:02.236Z,28.05
2019-06-20T00:42:02.217Z,27.95
2019-06-20T00:43:16.247Z,27.96
2019-06-20T00:44:03.201Z,27.98
2019-06-20T00:45:02.187Z,28.00
2019-06-20T00:46:02.176Z,27.93
2019-06-20T00:47:02.179Z,28.00
2019-06-20T00:48:02.164Z,27.96
2019-06-20T00:49:02.156Z,27.98
2019-06-20T00:50:02.134Z,27.92
2019-06-20T00:51:02.124Z,27.95
2019-06-20T00:52:02.177Z,27.96
2019-06-20T00:53:02.103Z,28.00
2019-06-20T00:54:02.090Z,27.95
2019-06-20T00:55:02.080Z,28.00
2019-06-20T00:56:02.066Z,27.95
2019-06-20T00:57:02.194Z,27.92
2019-06-20T00:58:02.057Z,27.96
2019-06-20T00:59:02.036Z,27.96
2019-06-20T01:00:02.031Z,27.92
2019-06-20T01:01:02.017Z,27.96
2019-06-20T01:02:02.007Z,27.98
2019-06-20T01:03:02.207Z,28.00
2019-06-20T01:04:01.998Z,27.86
2019-06-20T01:05:01.974Z,27.90
2019-06-20T01:06:01.974Z,27.92
2019-06-20T01:07:01.949Z,27.95
2019-06-20T01:08:02.008Z,27.93
2019-06-20T01:09:01.935Z,27.95
2019-06-20T01:10:01.963Z,27.96
2019-06-20T01:11:01.918Z,27.93
2019-06-20T01:12:01.897Z,28.00
2019-06-20T01:13:01.890Z,27.93
2019-06-20T01:14:01.876Z,27.92
2019-06-20T01:15:01.935Z,27.96
2019-06-20T01:16:01.858Z,27.86
2019-06-20T01:17:01.851Z,27.85
2019-06-20T01:18:01.831Z,27.87
2019-06-20T01:19:01.823Z,27.92
2019-06-20T01:20:01.834Z,27.89
2019-06-20T01:21:01.817Z,27.86
2019-06-20T01:22:01.845Z,27.85
2019-06-20T01:23:01.785Z,27.92
2019-06-20T01:24:01.772Z,27.90
2019-06-20T01:25:01.875Z,27.93
2019-06-20T01:26:01.746Z,27.87
2019-06-20T01:27:01.757Z,27.87
2019-06-20T01:28:01.743Z,27.87
2019-06-20T01:29:01.719Z,27.89
2019-06-20T01:30:01.705Z,27.87
2019-06-20T01:31:01.705Z,27.87
2019-06-20T01:32:01.686Z,27.86
2019-06-20T01:33:01.680Z,27.80
2019-06-20T01:34:01.669Z,27.92
2019-06-20T01:35:01.663Z,27.95
2019-06-20T01:36:01.638Z,27.87
2019-06-20T01:37:01.631Z,27.89
2019-06-20T01:38:01.618Z,27.89
2019-06-20T01:39:01.630Z,27.90
2019-06-20T01:40:01.598Z,27.87
2019-06-20T01:41:05.092Z,27.85
2019-06-20T01:42:01.574Z,27.89
2019-06-20T01:43:01.563Z,27.85
2019-06-20T01:44:01.563Z,27.85
2019-06-20T01:45:01.557Z,27.86
2019-06-20T01:46:01.539Z,27.85
2019-06-20T01:47:01.522Z,27.83
2019-06-20T01:48:01.510Z,27.87
2019-06-20T01:49:01.507Z,27.85
2019-06-20T01:50:01.503Z,27.89
2019-06-20T01:51:01.485Z,27.92
2019-06-20T01:52:01.707Z,27.90
2019-06-20T01:53:01.460Z,27.87
2019-06-20T01:54:01.447Z,27.87
2019-06-20T01:55:01.436Z,27.86
2019-06-20T01:56:01.443Z,27.85
2019-06-20T01:57:01.422Z,27.98
2019-06-20T01:58:01.408Z,27.83
2019-06-20T01:59:01.398Z,27.89
2019-06-20T02:00:01.425Z,27.89
2019-06-20T02:01:01.374Z,27.90
2019-06-20T02:02:01.375Z,27.92
2019-06-20T02:03:01.359Z,27.93
2019-06-20T02:04:01.341Z,27.89
2019-06-20T02:05:01.412Z,27.85
2019-06-20T02:06:01.334Z,27.90
2019-06-20T02:07:01.317Z,27.90
2019-06-20T02:08:01.357Z,27.89
2019-06-20T02:09:01.293Z,27.87
2019-06-20T02:10:01.277Z,27.90
2019-06-20T02:11:01.265Z,27.86
2019-06-20T02:12:01.273Z,27.85
2019-06-20T02:13:01.304Z,27.89
2019-06-20T02:14:07.211Z,27.85
2019-06-20T02:15:02.221Z,27.78
2019-06-20T02:16:01.214Z,27.92
2019-06-20T02:17:01.205Z,27.89
2019-06-20T02:18:01.191Z,27.82
2019-06-20T02:19:01.190Z,27.89
2019-06-20T02:20:01.193Z,27.82
2019-06-20T02:21:01.161Z,27.85
2019-06-20T02:22:01.146Z,27.86
2019-06-20T02:23:01.138Z,27.85
2019-06-20T02:24:01.143Z,27.80
2019-06-20T02:25:01.120Z,27.85
2019-06-20T02:26:01.110Z,27.86
2019-06-20T02:27:01.497Z,27.83
2019-06-20T02:28:01.086Z,27.90
2019-06-20T02:29:01.102Z,27.82
2019-06-20T02:30:01.081Z,27.87
2019-06-20T02:31:01.064Z,27.83
2019-06-20T02:32:01.040Z,27.83
2019-06-20T02:33:01.041Z,27.87
2019-06-20T02:34:01.028Z,27.82
2019-06-20T02:35:01.025Z,27.83
2019-06-20T02:36:01.001Z,27.83
2019-06-20T02:37:01.000Z,27.89
2019-06-20T02:38:00.978Z,27.78
2019-06-20T02:39:00.970Z,27.83
2019-06-20T02:40:00.957Z,27.89
2019-06-20T02:41:00.947Z,27.87
2019-06-20T02:42:00.937Z,27.80
2019-06-20T02:43:00.948Z,27.86
2019-06-20T02:44:00.917Z,27.85
2019-06-20T02:45:00.908Z,27.80
2019-06-20T02:46:00.900Z,27.82
2019-06-20T02:47:00.888Z,27.87
2019-06-20T02:48:00.877Z,27.83
2019-06-20T02:49:00.870Z,27.89
2019-06-20T02:50:00.856Z,27.80
2019-06-20T02:51:00.840Z,27.80
2019-06-20T02:52:00.827Z,27.78
2019-06-20T02:53:00.822Z,27.85
2019-06-20T02:54:00.814Z,27.77
2019-06-20T02:55:00.796Z,27.80
2019-06-20T02:56:00.785Z,27.75
2019-06-20T02:57:00.791Z,27.80
2019-06-20T02:58:00.800Z,27.85
2019-06-20T02:59:00.789Z,27.75
2019-06-20T03:00:00.743Z,27.82
2019-06-20T03:01:00.734Z,27.75
2019-06-20T03:02:00.723Z,27.82
2019-06-20T03:03:00.718Z,27.83
2019-06-20T03:04:00.707Z,27.77
2019-06-20T03:05:00.690Z,27.77
2019-06-20T03:06:00.690Z,27.82
2019-06-20T03:07:00.667Z,27.71
2019-06-20T03:08:00.659Z,27.73
2019-06-20T03:09:00.644Z,27.80
2019-06-20T03:10:00.649Z,27.77
2019-06-20T03:11:00.630Z,27.82
2019-06-20T03:12:00.631Z,27.82
2019-06-20T03:13:00.604Z,27.75
2019-06-20T03:14:00.615Z,27.71
2019-06-20T03:15:00.590Z,27.74
2019-06-20T03:16:00.578Z,27.74
2019-06-20T03:17:00.565Z,27.74
2019-06-20T03:18:00.568Z,27.74
2019-06-20T03:19:00.538Z,27.82
2019-06-20T03:20:00.528Z,27.75
2019-06-20T03:21:00.518Z,27.75
2019-06-20T03:22:00.523Z,27.71
2019-06-20T03:23:00.501Z,27.77
2019-06-20T03:24:00.488Z,27.71
2019-06-20T03:25:00.476Z,27.75
2019-06-20T03:26:00.461Z,27.77
2019-06-20T03:27:00.457Z,27.74
2019-06-20T03:28:00.451Z,27.75
2019-06-20T03:29:00.438Z,27.73
2019-06-20T03:30:00.521Z,27.70
2019-06-20T03:31:00.413Z,27.70
2019-06-20T03:32:00.398Z,27.75
2019-06-20T03:33:00.397Z,27.75
2019-06-20T03:34:00.379Z,27.74
2019-06-20T03:35:00.388Z,27.74
2019-06-20T03:36:00.357Z,27.73
2019-06-20T03:37:00.347Z,27.70
2019-06-20T03:38:00.336Z,27.68
2019-06-20T03:39:00.323Z,27.75
2019-06-20T03:40:00.314Z,27.77
2019-06-20T03:41:00.303Z,27.71
2019-06-20T03:42:00.292Z,27.75
2019-06-20T03:43:00.287Z,27.71
2019-06-20T03:44:00.270Z,27.75
2019-06-20T03:45:02.435Z,27.68
2019-06-20T03:46:00.255Z,27.70
2019-06-20T03:47:00.261Z,27.71
2019-06-20T03:48:00.231Z,27.78
2019-06-20T03:49:00.222Z,27.70
2019-06-20T03:50:00.209Z,27.75
2019-06-20T03:51:00.203Z,27.82
2019-06-20T03:52:00.192Z,27.70
2019-06-20T03:53:00.178Z,27.68
2019-06-20T03:54:00.164Z,27.71
2019-06-20T03:55:00.151Z,27.71
2019-06-20T03:56:00.139Z,27.68
2019-06-20T03:57:00.132Z,27.70
2019-06-20T03:58:00.124Z,27.71
2019-06-20T03:59:00.111Z,27.77
2019-06-20T04:00:00.102Z,27.75
2019-06-20T04:01:00.088Z,27.74
2019-06-20T04:02:00.075Z,27.70
2019-06-20T04:03:00.069Z,27.68
2019-06-20T04:04:00.057Z,27.71
2019-06-20T04:05:00.043Z,27.73
2019-06-20T04:06:00.034Z,27.70
2019-06-20T04:07:00.025Z,27.74
2019-06-20T04:08:00.015Z,27.71
2019-06-20T04:09:00.023Z,27.74
2019-06-20T04:09:59.991Z,27.73
2019-06-20T04:10:59.981Z,27.70
2019-06-20T04:11:59.970Z,27.68
2019-06-20T04:12:59.960Z,27.71
2019-06-20T04:13:59.947Z,27.70
2019-06-20T04:14:59.937Z,27.74
2019-06-20T04:15:59.927Z,27.75
2019-06-20T04:16:59.926Z,27.68
2019-06-20T04:17:59.907Z,27.74
2019-06-20T04:18:59.894Z,27.73
2019-06-20T04:19:59.899Z,27.65
2019-06-20T04:20:59.872Z,27.68
2019-06-20T04:21:59.874Z,27.77
2019-06-20T04:22:59.852Z,27.78
2019-06-20T04:23:59.846Z,27.70
2019-06-20T04:24:59.832Z,27.71
2019-06-20T04:25:59.826Z,27.70
2019-06-20T04:26:59.810Z,27.75
2019-06-20T04:27:59.813Z,27.71
2019-06-20T04:28:59.802Z,27.68
2019-06-20T04:29:59.795Z,27.68
2019-06-20T04:30:59.810Z,27.77
2019-06-20T04:31:59.771Z,27.70
2019-06-20T04:32:59.751Z,27.71
2019-06-20T04:33:59.736Z,27.75
2019-06-20T04:34:59.730Z,27.71
2019-06-20T04:35:59.731Z,27.71
2019-06-20T04:36:59.707Z,27.73
2019-06-20T04:37:59.693Z,27.74
2019-06-20T04:38:59.684Z,27.73
2019-06-20T04:39:59.699Z,27.74
2019-06-20T04:40:59.664Z,27.75
2019-06-20T04:41:59.649Z,27.73
2019-06-20T04:42:59.642Z,27.75
2019-06-20T04:43:59.625Z,27.75
2019-06-20T04:44:59.615Z,27.75
2019-06-20T04:45:59.605Z,27.74
2019-06-20T04:46:59.599Z,27.70
2019-06-20T04:47:59.661Z,27.70
2019-06-20T04:48:59.580Z,27.75
2019-06-20T04:49:59.567Z,27.75
2019-06-20T04:50:59.567Z,27.78
2019-06-20T04:51:59.542Z,27.85
2019-06-20T04:52:59.530Z,27.87
2019-06-20T04:53:59.520Z,27.86
2019-06-20T04:54:59.517Z,27.87
2019-06-20T04:55:59.499Z,27.92
2019-06-20T04:56:59.495Z,27.89
2019-06-20T04:57:59.500Z,27.90
2019-06-20T04:58:59.465Z,27.90
2019-06-20T04:59:59.464Z,27.93
2019-06-20T05:00:59.450Z,27.89
2019-06-20T05:01:59.447Z,27.82
2019-06-20T05:02:59.432Z,27.87
2019-06-20T05:03:59.416Z,27.92
2019-06-20T05:04:59.402Z,27.95
2019-06-20T05:05:59.402Z,27.89
2019-06-20T05:06:59.381Z,27.98
2019-06-20T05:07:59.368Z,27.95
2019-06-20T05:08:59.357Z,28.04
2019-06-20T05:09:59.356Z,28.08
2019-06-20T05:10:59.352Z,28.08
2019-06-20T05:11:59.337Z,28.08
2019-06-20T05:12:59.321Z,28.10
2019-06-20T05:13:59.312Z,28.14
2019-06-20T05:14:59.306Z,28.08
2019-06-20T05:15:59.313Z,28.11
2019-06-20T05:16:59.279Z,28.14
2019-06-20T05:17:59.264Z,28.15
2019-06-20T05:18:59.253Z,28.23
2019-06-20T05:19:59.241Z,28.22
2019-06-20T05:20:59.235Z,28.30
2019-06-20T05:21:59.220Z,28.20
2019-06-20T05:22:59.210Z,28.27
2019-06-20T05:23:59.197Z,28.27
2019-06-20T05:24:59.189Z,28.35
2019-06-20T05:25:59.181Z,28.32
2019-06-20T05:26:59.172Z,28.39
2019-06-20T05:27:59.159Z,28.33
2019-06-20T05:28:59.151Z,28.38
2019-06-20T05:29:59.176Z,28.39
2019-06-20T05:30:59.124Z,28.35
2019-06-20T05:31:59.117Z,28.42
2019-06-20T05:32:59.137Z,28.44
2019-06-20T05:33:59.098Z,28.45
2019-06-20T05:35:02.825Z,28.47
2019-06-20T05:35:59.070Z,28.47
2019-06-20T05:36:59.104Z,28.48
2019-06-20T05:37:59.051Z,28.48
2019-06-20T05:38:59.054Z,28.49
2019-06-20T05:39:59.036Z,28.48
2019-06-20T05:40:59.016Z,28.51
2019-06-20T05:41:59.058Z,28.49
2019-06-20T05:42:59.000Z,28.66
2019-06-20T05:43:58.985Z,28.63
2019-06-20T05:44:58.978Z,28.56
2019-06-20T05:46:08.840Z,28.56
2019-06-20T05:47:11.880Z,28.59
2019-06-20T05:47:59.945Z,28.64
2019-06-20T05:48:58.933Z,28.66
2019-06-20T05:49:58.942Z,28.66
2019-06-20T05:50:58.914Z,28.66
2019-06-20T05:51:59.427Z,28.74
2019-06-20T05:52:58.892Z,28.67
2019-06-20T05:53:58.882Z,28.70
2019-06-20T05:54:58.870Z,28.70
2019-06-20T05:55:58.857Z,28.70
2019-06-20T05:56:58.851Z,28.69
2019-06-20T05:57:58.835Z,28.69
2019-06-20T05:58:58.836Z,28.69
2019-06-20T05:59:58.825Z,28.69
2019-06-20T06:00:58.811Z,28.70
2019-06-20T06:01:58.792Z,28.64
2019-06-20T06:02:58.785Z,28.69
2019-06-20T06:03:58.771Z,28.66
2019-06-20T06:04:58.763Z,28.64
2019-06-20T06:05:58.756Z,28.59
2019-06-20T06:06:58.744Z,28.67
2019-06-20T06:07:58.729Z,28.62
2019-06-20T06:08:58.724Z,28.56
2019-06-20T06:10:02.997Z,28.66
2019-06-20T06:10:59.699Z,28.59
2019-06-20T06:11:58.688Z,28.63
2019-06-20T06:12:58.681Z,28.59
2019-06-20T06:13:58.669Z,28.64
2019-06-20T06:15:00.985Z,28.62
2019-06-20T06:15:58.644Z,28.66
2019-06-20T06:16:58.635Z,28.57
2019-06-20T06:17:58.622Z,28.60
2019-06-20T06:18:58.616Z,28.60
2019-06-20T06:19:58.605Z,28.57
2019-06-20T06:20:58.593Z,28.51
2019-06-20T06:21:58.584Z,28.60
2019-06-20T06:22:58.569Z,28.59
2019-06-20T06:23:58.560Z,28.64
2019-06-20T06:24:58.546Z,28.69
2019-06-20T06:25:58.537Z,28.62
2019-06-20T06:26:59.999Z,28.63
2019-06-20T06:27:58.516Z,28.63
2019-06-20T06:28:58.504Z,28.64
2019-06-20T06:29:58.500Z,28.54
2019-06-20T06:30:58.488Z,28.63
2019-06-20T06:31:58.482Z,28.47
2019-06-20T06:32:58.461Z,28.48
2019-06-20T06:33:58.452Z,28.59
2019-06-20T06:34:58.441Z,28.54
2019-06-20T06:35:58.435Z,28.48
2019-06-20T06:36:58.422Z,28.45
2019-06-20T06:37:58.424Z,28.52
2019-06-20T06:38:58.401Z,28.52
2019-06-20T06:39:58.388Z,28.39
2019-06-20T06:40:58.385Z,28.42
2019-06-20T06:41:58.375Z,28.41
2019-06-20T06:42:58.360Z,28.39
2019-06-20T06:43:58.344Z,28.41
2019-06-20T06:44:58.332Z,28.38
2019-06-20T06:45:58.321Z,28.38
2019-06-20T06:46:59.725Z,28.39
2019-06-20T06:47:58.323Z,28.37
2019-06-20T06:48:58.304Z,28.38
2019-06-20T06:49:58.279Z,28.30
2019-06-20T06:50:58.270Z,28.30
2019-06-20T06:51:58.274Z,28.23
2019-06-20T06:52:58.291Z,28.35
2019-06-20T06:53:58.247Z,28.22
2019-06-20T06:54:58.240Z,28.25
2019-06-20T06:55:58.251Z,28.25
2019-06-20T06:56:58.211Z,28.26
2019-06-20T06:57:58.358Z,28.19
2019-06-20T06:58:58.210Z,28.25
2019-06-20T06:59:58.189Z,28.20
2019-06-20T07:00:58.164Z,28.17
2019-06-20T07:01:58.156Z,28.19
2019-06-20T07:02:58.141Z,28.15
2019-06-20T07:03:58.132Z,28.15
2019-06-20T07:04:58.142Z,28.17
2019-06-20T07:05:58.115Z,28.19
2019-06-20T07:06:58.125Z,28.14
2019-06-20T07:07:58.088Z,28.19
2019-06-20T07:08:58.078Z,28.15
2019-06-20T07:09:58.075Z,28.17
2019-06-20T07:10:58.055Z,28.14
2019-06-20T07:11:58.065Z,28.14
2019-06-20T07:12:58.039Z,28.12
2019-06-20T07:13:58.044Z,28.10
2019-06-20T07:14:58.010Z,28.08
2019-06-20T07:15:58.006Z,28.12
2019-06-20T07:17:00.641Z,28.15
2019-06-20T07:17:57.995Z,28.14
2019-06-20T07:18:57.972Z,28.15
2019-06-20T07:19:57.961Z,28.14
2019-06-20T07:20:57.951Z,28.14
2019-06-20T07:21:58.021Z,28.17
2019-06-20T07:22:57.929Z,28.15
2019-06-20T07:23:57.926Z,28.25
2019-06-20T07:24:57.909Z,28.14
2019-06-20T07:25:57.918Z,28.14
2019-06-20T07:26:57.886Z,28.15
2019-06-20T07:27:57.874Z,28.14
2019-06-20T07:28:57.866Z,28.22
2019-06-20T07:29:57.851Z,28.11
2019-06-20T07:30:57.844Z,28.17
2019-06-20T07:31:57.829Z,28.14
2019-06-20T07:32:57.830Z,28.14
2019-06-20T07:33:57.814Z,28.14
2019-06-20T07:34:57.808Z,28.14
2019-06-20T07:35:57.786Z,28.14
2019-06-20T07:36:57.778Z,28.12
2019-06-20T07:37:57.769Z,28.17
2019-06-20T07:38:57.755Z,28.15
2019-06-20T07:39:57.744Z,28.11
2019-06-20T07:40:57.733Z,28.12
2019-06-20T07:41:57.830Z,28.20
2019-06-20T07:42:57.718Z,28.20
2019-06-20T07:43:57.702Z,28.15
2019-06-20T07:44:57.693Z,28.20
2019-06-20T07:46:02.444Z,28.22
2019-06-20T07:46:58.669Z,28.20
2019-06-20T07:47:57.755Z,28.26
2019-06-20T07:48:57.829Z,28.15
2019-06-20T07:49:57.638Z,28.17
2019-06-20T07:50:57.638Z,28.26
2019-06-20T07:51:57.651Z,28.19
2019-06-20T07:53:02.325Z,28.15
2019-06-20T07:53:59.650Z,28.19
2019-06-20T07:54:57.590Z,28.12
2019-06-20T07:55:57.572Z,28.17
2019-06-20T07:56:57.566Z,28.15
2019-06-20T07:57:57.553Z,28.14
2019-06-20T07:58:57.541Z,28.15
2019-06-20T07:59:57.533Z,28.17
2019-06-20T08:00:57.519Z,28.08
2019-06-20T08:01:57.514Z,28.14
2019-06-20T08:02:57.499Z,28.10
2019-06-20T08:03:57.567Z,28.15
2019-06-20T08:04:57.485Z,28.11
2019-06-20T08:05:57.467Z,28.11
2019-06-20T08:06:57.598Z,28.08
2019-06-20T08:07:57.446Z,28.11
2019-06-20T08:08:57.440Z,28.19
2019-06-20T08:09:57.425Z,28.17
2019-06-20T08:10:57.419Z,28.19
2019-06-20T08:11:57.405Z,28.12
2019-06-20T08:12:57.394Z,28.17
2019-06-20T08:13:57.384Z,28.17
2019-06-20T08:14:58.296Z,28.15
2019-06-20T08:15:58.458Z,28.20
2019-06-20T08:16:57.434Z,28.10
2019-06-20T08:17:57.648Z,28.14
2019-06-20T08:18:57.334Z,28.14
2019-06-20T08:19:57.325Z,28.17
2019-06-20T08:20:57.307Z,28.14
2019-06-20T08:21:57.306Z,28.14
2019-06-20T08:22:57.322Z,28.12
2019-06-20T08:23:57.277Z,28.17
2019-06-20T08:24:57.266Z,28.11
2019-06-20T08:25:58.817Z,28.11
2019-06-20T08:26:58.688Z,28.12
2019-06-20T08:27:57.835Z,28.17
2019-06-20T08:29:10.499Z,28.17
2019-06-20T08:29:59.049Z,28.17
2019-06-20T08:30:57.686Z,28.19
2019-06-20T08:31:57.947Z,28.19
2019-06-20T08:32:59.149Z,28.27
2019-06-20T08:33:57.679Z,28.17
2019-06-20T08:34:59.004Z,28.20
2019-06-20T08:35:58.729Z,28.12
2019-06-20T08:36:57.814Z,28.15
2019-06-20T08:37:57.803Z,28.20
2019-06-20T08:38:58.602Z,28.26
2019-06-20T08:39:58.367Z,28.25
2019-06-20T08:40:58.462Z,28.29
2019-06-20T08:41:58.910Z,28.32
2019-06-20T08:42:58.470Z,28.27
2019-06-20T08:43:58.348Z,28.30
2019-06-20T08:44:57.906Z,28.35
2019-06-20T08:45:57.853Z,28.30
2019-06-20T08:47:00.235Z,28.33
2019-06-20T08:47:58.321Z,28.41
2019-06-20T08:48:58.251Z,28.35
2019-06-20T08:49:58.155Z,28.37
2019-06-20T08:50:58.494Z,28.39
2019-06-20T08:51:57.349Z,28.29
2019-06-20T08:52:57.969Z,28.39
2019-06-20T08:53:57.493Z,28.44
2019-06-20T08:54:58.233Z,28.39
2019-06-20T08:55:58.136Z,28.41
2019-06-20T08:56:57.401Z,28.30
2019-06-20T08:57:58.233Z,28.35
2019-06-20T08:58:57.361Z,28.41
2019-06-20T08:59:57.320Z,28.33
2019-06-20T09:00:58.050Z,28.32
2019-06-20T09:01:58.793Z,28.35
2019-06-20T09:02:58.242Z,28.39
2019-06-20T09:03:56.983Z,28.41
2019-06-20T09:04:58.055Z,28.35
2019-06-20T09:05:57.172Z,28.42
2019-06-20T09:06:57.577Z,28.39
2019-06-20T09:07:58.394Z,28.35
2019-06-20T09:08:58.180Z,28.39
2019-06-20T09:09:57.609Z,28.37
2019-06-20T09:10:57.477Z,28.38
2019-06-20T09:11:56.778Z,28.38
2019-06-20T09:12:57.045Z,28.32
2019-06-20T09:13:57.233Z,28.41
2019-06-20T09:14:56.929Z,28.33
2019-06-20T09:15:56.816Z,28.39
2019-06-20T09:16:56.710Z,28.39
2019-06-20T09:17:56.838Z,28.32
2019-06-20T09:18:56.798Z,28.32
2019-06-20T09:19:57.971Z,28.37
2019-06-20T09:20:58.021Z,28.37
2019-06-20T09:21:57.930Z,28.39
2019-06-20T09:22:56.789Z,28.39
2019-06-20T09:23:57.789Z,28.32
2019-06-20T09:24:56.841Z,28.27
2019-06-20T09:25:57.548Z,28.39
2019-06-20T09:26:57.221Z,28.38
2019-06-20T09:27:56.588Z,28.33
2019-06-20T09:28:57.147Z,28.32
2019-06-20T09:29:56.593Z,28.32
2019-06-20T09:30:57.102Z,28.32
2019-06-20T09:31:58.018Z,28.33
2019-06-20T09:32:57.737Z,28.37
2019-06-20T09:33:56.533Z,28.32
2019-06-20T09:34:56.760Z,28.38
2019-06-20T09:35:57.500Z,28.37
2019-06-20T09:36:57.522Z,28.35
2019-06-20T09:37:57.128Z,28.32
2019-06-20T09:38:57.838Z,28.30
2019-06-20T09:39:57.214Z,28.25
2019-06-20T09:40:56.895Z,28.23
2019-06-20T09:41:56.589Z,28.27
2019-06-20T09:42:56.489Z,28.29
2019-06-20T09:43:56.481Z,28.32
2019-06-20T09:44:56.450Z,28.25
2019-06-20T09:45:56.398Z,28.27
2019-06-20T09:46:56.474Z,28.25
2019-06-20T09:47:56.376Z,28.25
2019-06-20T09:48:56.377Z,28.22
2019-06-20T09:49:57.700Z,28.23
2019-06-20T09:50:57.026Z,28.23
2019-06-20T09:51:56.622Z,28.20
2019-06-20T09:52:56.733Z,28.29
2019-06-20T09:53:56.403Z,28.23
2019-06-20T09:54:56.307Z,28.30
2019-06-20T09:55:56.294Z,28.22
2019-06-20T09:56:56.916Z,28.26
2019-06-20T09:57:56.275Z,28.17
2019-06-20T09:58:58.271Z,28.27
2019-06-20T10:00:07.680Z,28.23
2019-06-20T10:00:57.492Z,28.23
2019-06-20T10:01:58.588Z,28.25
2019-06-20T10:02:57.751Z,28.19
2019-06-20T10:03:56.803Z,28.25
2019-06-20T10:04:56.704Z,28.22
2019-06-20T10:05:56.662Z,28.23
2019-06-20T10:06:56.653Z,28.22
2019-06-20T10:07:56.685Z,28.22
2019-06-20T10:08:56.551Z,28.23
2019-06-20T10:09:56.353Z,28.32
2019-06-20T10:10:56.308Z,28.27
2019-06-20T10:11:56.181Z,28.25
2019-06-20T10:12:56.111Z,28.26
2019-06-20T10:13:56.116Z,28.32
2019-06-20T10:14:56.249Z,28.25
2019-06-20T10:15:56.081Z,28.26
2019-06-20T10:16:56.917Z,28.25
2019-06-20T10:17:56.066Z,28.27
2019-06-20T10:18:56.557Z,28.33
2019-06-20T10:19:56.307Z,28.23
2019-06-20T10:20:57.625Z,28.32
2019-06-20T10:21:56.100Z,28.17
2019-06-20T10:22:57.296Z,28.26
2019-06-20T10:23:56.076Z,28.19
2019-06-20T10:24:55.981Z,28.26
2019-06-20T10:25:55.982Z,28.26
2019-06-20T10:26:55.958Z,28.29
2019-06-20T10:27:55.947Z,28.26
2019-06-20T10:28:57.330Z,28.26
2019-06-20T10:29:58.333Z,28.23
2019-06-20T10:30:57.876Z,28.22
2019-06-20T10:31:57.171Z,28.30
2019-06-20T10:32:57.543Z,28.30
2019-06-20T10:33:56.917Z,28.23
2019-06-20T10:34:57.112Z,28.23
2019-06-20T10:35:57.175Z,28.22
2019-06-20T10:36:57.078Z,28.26
2019-06-20T10:37:57.187Z,28.25
2019-06-20T10:38:56.917Z,28.27
2019-06-20T10:39:56.848Z,28.30
2019-06-20T10:40:59.533Z,28.23
2019-06-20T10:41:57.168Z,28.30
2019-06-20T10:42:56.916Z,28.33
2019-06-20T10:43:56.633Z,28.29
2019-06-20T10:44:56.246Z,28.33
2019-06-20T10:45:56.706Z,28.35
2019-06-20T10:46:55.749Z,28.30
2019-06-20T10:47:55.738Z,28.33
2019-06-20T10:48:55.844Z,28.37
2019-06-20T10:49:55.729Z,28.32
2019-06-20T10:50:55.715Z,28.30
2019-06-20T10:51:55.705Z,28.32
2019-06-20T10:52:55.683Z,28.32
2019-06-20T10:53:55.672Z,28.33
2019-06-20T10:54:55.666Z,28.29
2019-06-20T10:55:55.880Z,28.33
2019-06-20T10:56:55.639Z,28.23
2019-06-20T10:57:55.629Z,28.33
2019-06-20T10:58:55.630Z,28.22
2019-06-20T10:59:55.609Z,28.29
2019-06-20T11:00:55.605Z,28.32
2019-06-20T11:01:55.588Z,28.29
2019-06-20T11:02:55.576Z,28.26
2019-06-20T11:03:55.580Z,28.27
2019-06-20T11:04:55.556Z,28.27
2019-06-20T11:05:55.550Z,28.20
2019-06-20T11:06:55.548Z,28.22
2019-06-20T11:07:55.523Z,28.25
2019-06-20T11:08:55.535Z,28.25
2019-06-20T11:09:55.511Z,28.27
2019-06-20T11:10:55.500Z,28.25
2019-06-20T11:11:55.482Z,28.26
2019-06-20T11:12:56.351Z,28.27
2019-06-20T11:13:55.458Z,28.23
2019-06-20T11:14:55.450Z,28.26
2019-06-20T11:15:55.452Z,28.23
2019-06-20T11:16:55.430Z,28.25
2019-06-20T11:17:56.913Z,28.20
2019-06-20T11:18:55.416Z,28.27
2019-06-20T11:19:55.456Z,28.25
2019-06-20T11:20:55.384Z,28.25
2019-06-20T11:21:55.384Z,28.25
2019-06-20T11:22:55.441Z,28.25
2019-06-20T11:23:55.365Z,28.26
2019-06-20T11:24:55.365Z,28.25
2019-06-20T11:25:55.366Z,28.26
2019-06-20T11:26:55.322Z,28.29
2019-06-20T11:27:55.310Z,28.26
2019-06-20T11:28:55.862Z,28.29
2019-06-20T11:29:55.289Z,28.29
2019-06-20T11:31:00.118Z,28.26
2019-06-20T11:31:56.271Z,28.23
2019-06-20T11:32:55.256Z,28.22
2019-06-20T11:33:55.257Z,28.17
2019-06-20T11:34:55.236Z,28.29
2019-06-20T11:35:55.222Z,28.20
2019-06-20T11:36:55.217Z,28.27
2019-06-20T11:37:55.207Z,28.19
2019-06-20T11:38:55.197Z,28.20
2019-06-20T11:39:55.189Z,28.23
2019-06-20T11:40:55.174Z,28.17
2019-06-20T11:41:55.161Z,28.17
2019-06-20T11:42:55.149Z,28.20
2019-06-20T11:43:55.141Z,28.17
2019-06-20T11:44:55.142Z,28.23
2019-06-20T11:45:55.127Z,28.17
2019-06-20T11:46:55.110Z,28.25
2019-06-20T11:47:55.099Z,28.26
2019-06-20T11:48:55.085Z,28.20
2019-06-20T11:49:55.088Z,28.25
2019-06-20T11:50:55.113Z,28.27
2019-06-20T11:51:55.155Z,28.17
2019-06-20T11:52:55.075Z,28.19
2019-06-20T11:53:55.041Z,28.10
2019-06-20T11:54:55.051Z,28.11
2019-06-20T11:55:55.018Z,28.10
2019-06-20T11:56:55.014Z,28.20
2019-06-20T11:57:55.185Z,28.10
2019-06-20T11:58:54.998Z,28.08
2019-06-20T11:59:54.977Z,28.08
2019-06-20T12:01:03.561Z,27.96
2019-06-20T12:01:55.954Z,28.04
2019-06-20T12:02:54.944Z,27.95
2019-06-20T12:03:54.943Z,27.90
2019-06-20T12:04:54.922Z,27.93
2019-06-20T12:05:54.910Z,28.00
2019-06-20T12:06:54.900Z,27.87
2019-06-20T12:07:54.898Z,27.83
2019-06-20T12:08:54.878Z,27.89
2019-06-20T12:09:54.897Z,27.87
2019-06-20T12:10:54.855Z,27.90
2019-06-20T12:11:54.841Z,27.93
2019-06-20T12:12:54.836Z,27.87
2019-06-20T12:13:54.858Z,27.89
2019-06-20T12:14:54.842Z,27.87
2019-06-20T12:15:54.812Z,27.82
2019-06-20T12:16:54.794Z,27.80
2019-06-20T12:17:54.783Z,27.75
2019-06-20T12:18:54.769Z,27.78
2019-06-20T12:19:54.756Z,27.71
2019-06-20T12:20:54.761Z,27.78
2019-06-20T12:21:54.736Z,27.77
2019-06-20T12:22:54.724Z,27.70
2019-06-20T12:23:54.711Z,27.74
2019-06-20T12:24:54.712Z,27.75
2019-06-20T12:25:54.696Z,27.73
2019-06-20T12:26:54.700Z,27.75
2019-06-20T12:27:54.672Z,27.74
2019-06-20T12:28:54.662Z,27.73
2019-06-20T12:29:54.693Z,27.77
2019-06-20T12:30:54.640Z,27.78
2019-06-20T12:31:55.992Z,27.74
2019-06-20T12:32:54.687Z,27.73
2019-06-20T12:33:54.605Z,27.75
2019-06-20T12:34:54.596Z,27.78
2019-06-20T12:35:54.595Z,27.70
2019-06-20T12:36:54.575Z,27.70
2019-06-20T12:37:54.570Z,27.70
2019-06-20T12:38:54.565Z,27.68
2019-06-20T12:39:54.545Z,27.68
2019-06-20T12:40:54.552Z,27.70
2019-06-20T12:41:54.525Z,27.77
2019-06-20T12:42:54.539Z,27.71
2019-06-20T12:43:54.512Z,27.78
2019-06-20T12:44:54.490Z,27.70
2019-06-20T12:45:54.485Z,27.59
2019-06-20T12:46:54.471Z,27.70
2019-06-20T12:47:54.480Z,27.68
2019-06-20T12:48:54.450Z,27.68
2019-06-20T12:49:54.456Z,27.71
2019-06-20T12:50:54.424Z,27.71
2019-06-20T12:51:54.439Z,27.68